Quiring, Minnesota
Current Conditions -  °F | °C
As of 8:14 AM on Monday 20 Oct 2014 (Local Time) from KVWU Reporting Station
Scattered Clouds Scattered Clouds  
Wind Chill: 36°   Ceiling: Unl
Heat Index: 39°   Visibility: 10mi
Dew Point: 37°   Wind: 5mph
Humidity: 93%   Direction: 310°NW
Pressure: 30"   Gusts: NA
Location:  47.7306°N, 94.3762°W
Report Text: KVWU 201314Z AUTO 31004KT 10SM SCT005 04/03 A3000 RMK AO2
Loading
Personal Weather Stations






























Interactive Weather Map
Tropical Storm Tracking
New forecast layout! Learn more

10-Day Weather Forecast

Advertisements
Track Severe Weather on mobile